createdAt,value
2019-02-28T00:01:40.135Z,88.30
2019-02-28T00:05:42.205Z,87.80
2019-02-28T00:09:44.249Z,88.90
2019-02-28T00:13:46.135Z,88.70
2019-02-28T00:17:48.042Z,88.20
2019-02-28T00:21:49.937Z,88.20
2019-02-28T00:25:52.861Z,88.80
2019-02-28T00:29:54.748Z,88.20
2019-02-28T00:33:56.635Z,88.70
2019-02-28T00:37:58.599Z,88.50
2019-02-28T00:42:00.502Z,90.00
2019-02-28T00:46:02.421Z,89.20
2019-02-28T00:50:05.346Z,88.90
2019-02-28T00:54:08.684Z,88.90
2019-02-28T00:58:10.904Z,89.20
2019-02-28T01:02:12.884Z,88.90
2019-02-28T01:06:14.768Z,89.90
2019-02-28T01:10:17.082Z,89.40
2019-02-28T01:14:19.005Z,89.50
2019-02-28T01:18:20.955Z,89.10
2019-02-28T01:22:22.859Z,89.00
2019-02-28T01:26:24.763Z,88.60
2019-02-28T01:30:26.738Z,89.00
2019-02-28T01:34:32.061Z,89.20
2019-02-28T01:38:32.704Z,89.20
2019-02-28T01:42:34.673Z,89.70
2019-02-28T01:46:36.572Z,89.90
2019-02-28T01:50:38.501Z,89.20
2019-02-28T01:54:41.378Z,90.50
2019-02-28T01:58:43.280Z,90.20
2019-02-28T02:02:45.202Z,90.20
2019-02-28T02:06:47.456Z,90.40
2019-02-28T02:10:49.448Z,90.40
2019-02-28T02:14:53.045Z,90.80
2019-02-28T02:18:54.959Z,91.00
2019-02-28T02:22:56.890Z,91.10
2019-02-28T02:26:58.810Z,90.80
2019-02-28T02:36:23.839Z,90.80
2019-02-28T02:40:25.759Z,90.70
2019-02-28T02:44:31.774Z,90.50
2019-02-28T02:48:31.275Z,90.50
2019-02-28T02:52:33.200Z,90.50
2019-02-28T02:56:40.668Z,90.60
2019-02-28T03:00:38.719Z,90.30
2019-02-28T03:04:40.672Z,90.70
2019-02-28T03:08:42.583Z,91.40
2019-02-28T03:12:44.668Z,91.30
2019-02-28T03:16:46.582Z,91.40
2019-02-28T03:20:48.506Z,91.10
2019-02-28T03:24:52.072Z,90.90
2019-02-28T03:28:55.265Z,91.00
2019-02-28T03:32:57.166Z,91.20
2019-02-28T03:36:59.078Z,91.10
2019-02-28T03:41:01.446Z,90.60
2019-02-28T03:45:03.836Z,91.00
2019-02-28T03:49:11.015Z,91.00
2019-02-28T03:53:09.411Z,90.90
2019-02-28T03:57:11.395Z,90.90
2019-02-28T04:01:13.376Z,90.80
2019-02-28T04:05:15.290Z,91.00
2019-02-28T04:09:17.207Z,90.90
2019-02-28T04:13:20.318Z,91.00
2019-02-28T04:17:22.317Z,91.10
2019-02-28T04:21:24.234Z,91.20
2019-02-28T04:25:26.284Z,91.20
2019-02-28T04:29:31.124Z,91.20
2019-02-28T04:33:37.352Z,91.00
2019-02-28T04:37:35.416Z,91.60
2019-02-28T04:41:37.332Z,91.70
2019-02-28T04:45:39.238Z,91.60
2019-02-28T04:49:41.144Z,91.30
2019-02-28T04:53:43.072Z,91.40
2019-02-28T04:57:44.994Z,91.10
2019-02-28T05:01:46.924Z,91.60
2019-02-28T05:05:48.876Z,91.20
2019-02-28T05:09:50.780Z,91.10
2019-02-28T05:13:52.704Z,91.30
2019-02-28T05:17:55.850Z,91.80
2019-02-28T05:21:58.247Z,91.80
2019-02-28T05:26:00.332Z,91.60
2019-02-28T05:30:02.245Z,91.80
2019-02-28T05:34:04.494Z,91.90
2019-02-28T05:38:06.414Z,92.10
2019-02-28T05:42:08.328Z,92.10
2019-02-28T05:46:10.303Z,91.90
2019-02-28T05:50:16.598Z,92.30
2019-02-28T05:54:17.235Z,92.10
2019-02-28T05:58:20.854Z,92.20
2019-02-28T06:02:23.348Z,92.10
2019-02-28T06:06:26.629Z,91.90
2019-02-28T06:10:29.500Z,92.10
2019-02-28T06:14:31.410Z,92.00
2019-02-28T06:18:33.600Z,92.30
2019-02-28T06:22:36.300Z,92.20
2019-02-28T06:26:38.326Z,92.30
2019-02-28T06:30:41.452Z,92.10
2019-02-28T06:34:43.841Z,92.50
2019-02-28T06:38:45.766Z,92.00
2019-02-28T06:42:47.795Z,92.20
2019-02-28T06:46:49.690Z,92.20
2019-02-28T06:50:51.593Z,92.50
2019-02-28T06:54:54.340Z,92.70
2019-02-28T06:58:56.412Z,92.60
2019-02-28T07:02:58.334Z,92.70
2019-02-28T07:07:00.261Z,92.80
2019-02-28T07:11:02.181Z,93.20
2019-02-28T07:15:04.836Z,93.40
2019-02-28T07:19:06.755Z,93.70
2019-02-28T07:23:08.682Z,93.80
2019-02-28T07:27:10.608Z,94.00
2019-02-28T07:31:12.518Z,94.30
2019-02-28T07:35:14.786Z,94.40
2019-02-28T07:39:16.761Z,94.30
2019-02-28T07:43:19.371Z,94.30
2019-02-28T07:47:21.328Z,93.10
2019-02-28T07:51:26.172Z,91.10
2019-02-28T07:55:27.343Z,86.40
2019-02-28T07:59:30.466Z,83.30
2019-02-28T08:03:32.414Z,77.00
2019-02-28T08:07:34.329Z,73.20
2019-02-28T08:11:36.255Z,72.50
2019-02-28T08:15:38.323Z,68.60
2019-02-28T08:19:40.250Z,67.10
2019-02-28T08:23:42.145Z,65.50
2019-02-28T08:27:44.140Z,63.90
2019-02-28T08:31:46.053Z,61.60
2019-02-28T08:35:49.031Z,60.70
2019-02-28T08:39:50.946Z,60.70
2019-02-28T08:43:52.871Z,59.10
2019-02-28T08:47:56.764Z,59.10
2019-02-28T08:51:58.412Z,58.50
2019-02-28T08:56:00.315Z,57.20
2019-02-28T09:00:02.259Z,59.40
2019-02-28T09:04:05.857Z,56.20
2019-02-28T09:08:07.811Z,56.50
2019-02-28T09:12:09.864Z,56.60
2019-02-28T09:16:11.779Z,55.80
2019-02-28T09:20:17.499Z,56.50
2019-02-28T09:24:19.456Z,56.60
2019-02-28T09:28:21.386Z,55.10
2019-02-28T09:32:23.356Z,54.30
2019-02-28T09:36:25.272Z,54.00
2019-02-28T09:40:29.460Z,54.20
2019-02-28T09:44:31.754Z,54.10
2019-02-28T09:48:37.218Z,53.10
2019-02-28T09:52:41.253Z,52.50
2019-02-28T09:56:44.505Z,52.70
2019-02-28T10:00:49.289Z,52.30
2019-02-28T10:04:50.021Z,52.10
2019-02-28T10:08:51.947Z,51.40
2019-02-28T10:12:53.877Z,51.00
2019-02-28T10:16:55.787Z,50.50
2019-02-28T10:20:58.970Z,50.90
2019-02-28T10:25:03.553Z,50.60
2019-02-28T10:29:07.450Z,51.40
2019-02-28T10:33:09.234Z,50.00
2019-02-28T10:37:11.147Z,49.50
2019-02-28T10:41:15.373Z,49.00
2019-02-28T10:45:17.669Z,47.80
2019-02-28T10:49:21.094Z,47.50
2019-02-28T10:53:23.368Z,47.30
2019-02-28T10:57:25.282Z,47.20
2019-02-28T11:01:27.208Z,46.20
2019-02-28T11:05:35.065Z,45.90
2019-02-28T11:09:36.995Z,45.50
2019-02-28T11:13:57.723Z,45.10
2019-02-28T11:18:09.760Z,44.90
2019-02-28T11:22:11.992Z,44.30
2019-02-28T11:26:13.986Z,44.00
2019-02-28T11:30:31.663Z,42.80
2019-02-28T11:34:34.667Z,42.40
2019-02-28T11:38:36.594Z,42.80
2019-02-28T11:42:38.566Z,43.20
2019-02-28T11:46:40.509Z,41.80
2019-02-28T11:50:44.944Z,42.50
2019-02-28T11:54:46.332Z,42.40
2019-02-28T11:58:51.476Z,43.20
2019-02-28T12:02:53.522Z,41.50
2019-02-28T12:06:57.384Z,42.30
2019-02-28T12:11:01.925Z,41.50
2019-02-28T12:15:05.987Z,40.30
2019-02-28T12:19:07.755Z,39.80
2019-02-28T12:23:09.756Z,40.30
2019-02-28T12:27:11.688Z,40.30
2019-02-28T12:31:14.091Z,40.60
2019-02-28T12:35:16.191Z,39.70
2019-02-28T12:39:18.155Z,39.90
2019-02-28T12:43:20.075Z,40.20
2019-02-28T12:47:22.776Z,41.20
2019-02-28T12:51:24.709Z,39.80
2019-02-28T12:55:26.629Z,39.50
2019-02-28T12:59:28.556Z,38.40
2019-02-28T13:03:30.468Z,38.00
2019-02-28T13:07:33.915Z,37.40
2019-02-28T13:11:36.543Z,35.90
2019-02-28T13:15:38.531Z,35.80
2019-02-28T13:19:40.468Z,35.60
2019-02-28T13:23:42.455Z,36.30
2019-02-28T13:27:45.242Z,36.70
2019-02-28T13:31:49.049Z,36.10
2019-02-28T13:35:51.000Z,36.70
2019-02-28T13:39:53.000Z,36.80
2019-02-28T13:43:59.220Z,37.70
2019-02-28T13:47:58.548Z,37.60
2019-02-28T13:52:00.541Z,36.20
2019-02-28T13:56:04.935Z,35.40
2019-02-28T14:00:14.493Z,34.90
2019-02-28T14:04:19.395Z,34.10
2019-02-28T14:08:20.322Z,34.00
2019-02-28T14:12:22.417Z,33.60
2019-02-28T14:16:26.932Z,33.30
2019-02-28T14:20:28.486Z,33.70
2019-02-28T14:24:32.015Z,34.80
2019-02-28T14:28:35.613Z,34.40
2019-02-28T14:32:38.684Z,33.20
2019-02-28T14:36:41.824Z,33.80
2019-02-28T14:40:45.201Z,34.90
2019-02-28T14:44:47.117Z,36.00
2019-02-28T14:48:49.044Z,37.30
2019-02-28T14:52:54.295Z,38.60
2019-02-28T14:56:56.220Z,39.10
2019-02-28T15:00:58.149Z,40.40
2019-02-28T15:05:00.057Z,40.60
2019-02-28T15:09:01.993Z,39.90
2019-02-28T15:13:05.875Z,39.80
2019-02-28T15:17:07.816Z,39.00
2019-02-28T15:21:09.717Z,39.40
2019-02-28T15:25:21.016Z,38.60
2019-02-28T15:29:23.384Z,39.20
2019-02-28T15:33:27.459Z,40.10
2019-02-28T15:37:33.373Z,40.60
2019-02-28T15:41:35.016Z,40.80
2019-02-28T15:45:37.542Z,41.90
2019-02-28T15:49:41.768Z,42.40
2019-02-28T15:53:43.168Z,42.80
2019-02-28T15:57:45.352Z,43.60
2019-02-28T16:01:47.300Z,44.40
2019-02-28T16:05:49.239Z,44.40
2019-02-28T16:09:54.161Z,44.60
2019-02-28T16:13:57.465Z,45.30
2019-02-28T16:17:58.950Z,46.00
2019-02-28T16:22:01.664Z,46.20
2019-02-28T16:26:04.060Z,46.30
2019-02-28T16:30:13.711Z,46.70
2019-02-28T16:34:15.730Z,47.30
2019-02-28T16:38:17.677Z,47.90
2019-02-28T16:42:19.694Z,48.20
2019-02-28T16:46:21.797Z,48.90
2019-02-28T16:50:23.794Z,49.40
2019-02-28T16:54:27.788Z,49.80
2019-02-28T16:58:29.374Z,50.20
2019-02-28T17:02:31.305Z,50.80
2019-02-28T17:06:35.658Z,50.90
2019-02-28T17:10:40.052Z,51.70
2019-02-28T17:14:41.795Z,52.40
2019-02-28T17:18:43.721Z,53.00
2019-02-28T17:22:45.660Z,53.50
2019-02-28T17:26:49.236Z,54.00
2019-02-28T17:30:56.768Z,54.60
2019-02-28T17:34:59.036Z,55.60
2019-02-28T17:39:01.609Z,55.90
2019-02-28T17:43:05.212Z,56.40
2019-02-28T17:47:20.223Z,56.80
2019-02-28T17:51:37.886Z,57.60
2019-02-28T17:55:53.184Z,57.90
2019-02-28T18:00:16.140Z,57.40
2019-02-28T18:04:46.413Z,57.80
2019-02-28T18:09:12.636Z,58.20
2019-02-28T18:13:44.551Z,58.00
2019-02-28T18:18:28.204Z,58.20
2019-02-28T18:22:52.870Z,58.40
2019-02-28T18:27:36.691Z,58.90
2019-02-28T18:31:38.676Z,59.00
2019-02-28T18:35:41.380Z,59.40
2019-02-28T18:39:44.595Z,60.00
2019-02-28T18:43:46.930Z,60.30
2019-02-28T18:47:48.874Z,60.50
2019-02-28T18:51:51.873Z,61.10
2019-02-28T18:55:53.871Z,61.50
2019-02-28T18:59:55.806Z,61.50
2019-02-28T19:03:57.740Z,61.50
2019-02-28T19:07:59.772Z,61.30
2019-02-28T19:12:01.821Z,61.40
2019-02-28T19:16:04.233Z,61.90
2019-02-28T19:20:10.165Z,62.40
2019-02-28T19:24:12.095Z,62.10
2019-02-28T19:28:14.008Z,63.20
2019-02-28T19:32:15.967Z,61.50
2019-02-28T19:36:17.910Z,60.90
2019-02-28T19:40:19.914Z,61.10
2019-02-28T19:44:21.883Z,61.40
2019-02-28T19:48:23.794Z,61.90
2019-02-28T19:52:25.823Z,62.20
2019-02-28T19:56:27.864Z,62.50
2019-02-28T20:00:29.872Z,62.80
2019-02-28T20:04:31.814Z,63.10
2019-02-28T20:08:33.726Z,63.10
2019-02-28T20:12:35.731Z,60.20
2019-02-28T20:16:37.739Z,59.20
2019-02-28T20:20:39.673Z,59.50
2019-02-28T20:24:41.685Z,59.60
2019-02-28T20:28:43.606Z,59.00
2019-02-28T20:32:45.791Z,58.20
2019-02-28T20:36:47.986Z,58.90
2019-02-28T20:40:49.971Z,59.80
2019-02-28T20:44:52.930Z,60.10
2019-02-28T20:48:54.862Z,61.10
2019-02-28T20:52:57.884Z,62.10
2019-02-28T20:56:59.820Z,63.00
2019-02-28T21:01:01.839Z,64.00
2019-02-28T21:05:04.744Z,65.00
2019-02-28T21:09:07.928Z,65.50
2019-02-28T21:13:11.458Z,65.60
2019-02-28T21:17:13.372Z,65.70
2019-02-28T21:21:15.288Z,65.90
2019-02-28T21:25:18.887Z,66.20
2019-02-28T21:29:20.860Z,66.50
2019-02-28T21:33:22.771Z,66.70
2019-02-28T21:37:24.940Z,66.70
2019-02-28T21:41:26.914Z,66.70
2019-02-28T21:45:30.000Z,67.20
2019-02-28T21:49:32.951Z,67.40
2019-02-28T21:53:34.869Z,68.00
2019-02-28T21:57:36.788Z,68.50
2019-02-28T22:01:38.763Z,68.50
2019-02-28T22:05:40.679Z,68.90
2019-02-28T22:09:42.574Z,69.20
2019-02-28T22:13:44.488Z,69.40
2019-02-28T22:17:46.398Z,70.00
2019-02-28T22:21:48.320Z,70.30
2019-02-28T22:25:50.247Z,70.20
2019-02-28T22:29:52.141Z,71.30
2019-02-28T22:33:59.885Z,70.40
2019-02-28T22:38:01.794Z,70.70
2019-02-28T22:42:03.777Z,71.00
2019-02-28T22:46:05.705Z,71.00
2019-02-28T22:50:09.911Z,71.30
2019-02-28T22:54:11.819Z,71.40
2019-02-28T22:58:13.733Z,71.70
2019-02-28T23:02:15.781Z,71.90
2019-02-28T23:06:17.749Z,72.10
2019-02-28T23:10:20.176Z,72.00
2019-02-28T23:14:22.082Z,72.10
2019-02-28T23:18:23.982Z,72.40
2019-02-28T23:22:25.893Z,73.10
2019-02-28T23:26:27.968Z,73.40
2019-02-28T23:31:09.243Z,73.50
2019-02-28T23:35:16.317Z,74.00
2019-02-28T23:39:18.221Z,74.20
2019-02-28T23:43:20.143Z,74.80
2019-02-28T23:47:22.047Z,74.90
2019-02-28T23:51:23.946Z,75.90
2019-02-28T23:55:25.846Z,76.30
2019-02-28T23:59:27.769Z,76.20
